createdAt,value
2018-09-09T00:00:33.440Z,15.30
2018-09-09T00:03:13.748Z,16.77
2018-09-09T00:05:54.300Z,18.15
2018-09-09T00:08:35.055Z,15.45
2018-09-09T00:11:03.375Z,18.12
2018-09-09T00:13:31.821Z,16.23
2018-09-09T00:16:12.096Z,17.57
2018-09-09T00:18:52.783Z,16.77
2018-09-09T00:21:21.265Z,18.62
2018-09-09T00:24:02.254Z,17.62
2018-09-09T00:26:31.189Z,15.98
2018-09-09T00:29:00.300Z,18.60
2018-09-09T00:31:41.475Z,18.35
2018-09-09T00:34:09.772Z,17.95
2018-09-09T00:36:39.430Z,15.18
2018-09-09T00:39:08.053Z,13.28
2018-09-09T00:41:37.321Z,14.55
2018-09-09T00:44:05.734Z,13.75
2018-09-09T00:46:34.199Z,13.43
2018-09-09T00:52:42.150Z,14.80
2018-09-09T00:55:10.632Z,12.55
2018-09-09T00:57:45.143Z,14.80
2018-09-09T01:00:31.103Z,19.05
2018-09-09T01:03:11.285Z,13.35
2018-09-09T01:05:51.921Z,12.98
2018-09-09T01:08:20.214Z,11.88
2018-09-09T01:11:01.302Z,13.28
2018-09-09T01:13:30.287Z,14.38
2018-09-09T01:15:58.674Z,15.10
2018-09-09T01:18:30.990Z,17.23
2018-09-09T01:20:59.510Z,15.40
2018-09-09T01:23:28.186Z,12.43
2018-09-09T01:26:02.179Z,14.03
2018-09-09T01:28:42.822Z,15.45
2018-09-09T01:31:11.619Z,12.40
2018-09-09T01:33:52.257Z,12.43
2018-09-09T01:36:32.881Z,12.07
2018-09-09T01:39:06.816Z,12.68
2018-09-09T01:41:47.383Z,10.75
2018-09-09T01:44:15.736Z,10.20
2018-09-09T01:46:56.721Z,11.68
2018-09-09T01:49:37.231Z,12.30
2018-09-09T01:52:06.340Z,10.55
2018-09-09T01:54:34.613Z,12.30
2018-09-09T01:57:09.391Z,10.18
2018-09-09T01:59:38.950Z,11.03
2018-09-09T02:02:19.605Z,12.28
2018-09-09T02:04:48.575Z,13.38
2018-09-09T02:07:29.097Z,12.53
2018-09-09T02:10:09.608Z,11.68
2018-09-09T02:12:50.513Z,11.63
2018-09-09T02:15:30.989Z,11.65
2018-09-09T02:18:11.708Z,13.18
2018-09-09T02:20:52.402Z,11.45
2018-09-09T02:23:32.998Z,10.58
2018-09-09T02:26:01.400Z,11.68
2018-09-09T02:28:42.289Z,11.90
2018-09-09T02:31:22.921Z,11.90
2018-09-09T02:34:03.400Z,11.40
2018-09-09T02:36:44.058Z,11.55
2018-09-09T02:39:12.367Z,10.78
2018-09-09T02:41:53.565Z,13.32
2018-09-09T02:44:34.175Z,12.20
2018-09-09T02:47:02.539Z,14.20
2018-09-09T02:49:43.603Z,12.18
2018-09-09T02:52:12.230Z,12.85
2018-09-09T02:54:53.013Z,14.50
2018-09-09T02:57:22.140Z,11.15
2018-09-09T02:59:50.373Z,11.75
2018-09-09T03:02:31.852Z,11.30
2018-09-09T03:05:01.507Z,12.68
2018-09-09T03:07:29.799Z,13.08
2018-09-09T03:10:10.162Z,12.37
2018-09-09T03:12:50.740Z,13.48
2018-09-09T03:15:21.068Z,13.15
2018-09-09T03:18:02.559Z,14.23
2018-09-09T03:20:30.860Z,12.05
2018-09-09T03:23:01.381Z,10.82
2018-09-09T03:25:29.873Z,9.90
2018-09-09T03:28:10.112Z,13.60
2018-09-09T03:30:50.959Z,12.13
2018-09-09T03:33:31.332Z,11.25
2018-09-09T03:36:12.036Z,10.88
2018-09-09T03:38:40.332Z,15.13
2018-09-09T03:41:21.366Z,10.00
2018-09-09T03:43:49.741Z,11.08
2018-09-09T03:46:18.167Z,9.48
2018-09-09T03:48:46.668Z,13.40
2018-09-09T03:51:27.269Z,9.83
2018-09-09T03:54:07.936Z,10.48
2018-09-09T03:56:39.130Z,9.58
2018-09-09T03:59:19.333Z,10.60
2018-09-09T04:01:51.226Z,9.05
2018-09-09T04:04:20.425Z,9.93
2018-09-09T04:06:48.829Z,9.55
2018-09-09T04:09:23.781Z,10.93
2018-09-09T04:11:52.642Z,8.08
2018-09-09T04:14:20.950Z,9.18
2018-09-09T04:17:01.642Z,9.85
2018-09-09T04:19:29.985Z,9.68
2018-09-09T04:22:11.303Z,9.55
2018-09-09T04:24:48.012Z,9.03
2018-09-09T04:27:16.285Z,10.68
2018-09-09T04:29:48.556Z,10.35
2018-09-09T04:32:29.701Z,10.30
2018-09-09T04:34:59.552Z,9.18
2018-09-09T04:37:27.853Z,11.55
2018-09-09T04:39:57.759Z,10.75
2018-09-09T04:42:30.414Z,9.75
2018-09-09T04:44:58.965Z,11.18
2018-09-09T04:47:27.371Z,9.70
2018-09-09T04:49:55.665Z,10.43
2018-09-09T04:52:25.831Z,9.73
2018-09-09T04:54:54.509Z,8.90
2018-09-09T04:57:24.146Z,9.95
2018-09-09T04:59:56.391Z,13.55
2018-09-09T05:02:37.105Z,10.43
2018-09-09T05:05:07.205Z,11.38
2018-09-09T05:07:47.641Z,11.35
2018-09-09T05:10:22.156Z,11.28
2018-09-09T05:12:58.618Z,10.18
2018-09-09T05:15:28.213Z,10.95
2018-09-09T05:17:56.727Z,11.55
2018-09-09T05:20:37.239Z,14.68
2018-09-09T05:23:17.914Z,9.35
2018-09-09T05:25:49.291Z,10.25
2018-09-09T05:28:29.873Z,10.30
2018-09-09T05:31:00.520Z,8.43
2018-09-09T05:33:41.237Z,10.03
2018-09-09T05:36:21.992Z,10.63
2018-09-09T05:38:57.349Z,11.35
2018-09-09T05:41:38.324Z,13.78
2018-09-09T05:44:18.943Z,10.50
2018-09-09T05:46:55.084Z,9.10
2018-09-09T05:49:36.498Z,13.15
2018-09-09T05:52:16.922Z,9.38
2018-09-09T05:54:48.716Z,8.45
2018-09-09T05:57:17.057Z,10.03
2018-09-09T05:59:45.506Z,8.60
2018-09-09T06:02:13.832Z,8.93
2018-09-09T06:04:44.410Z,8.70
2018-09-09T06:07:12.726Z,8.15
2018-09-09T06:09:44.689Z,9.93
2018-09-09T06:12:12.970Z,10.60
2018-09-09T06:14:41.253Z,8.60
2018-09-09T06:17:10.622Z,9.20
2018-09-09T06:19:38.942Z,8.83
2018-09-09T06:22:07.280Z,8.55
2018-09-09T06:24:48.373Z,10.70
2018-09-09T06:27:29.006Z,8.63
2018-09-09T06:29:59.254Z,9.30
2018-09-09T06:32:28.098Z,9.13
2018-09-09T06:34:56.874Z,13.38
2018-09-09T06:37:25.753Z,9.80
2018-09-09T06:40:06.521Z,8.60
2018-09-09T06:42:47.487Z,7.97
2018-09-09T06:45:27.869Z,9.00
2018-09-09T06:48:08.313Z,9.28
2018-09-09T06:50:49.041Z,9.28
2018-09-09T06:53:29.821Z,8.05
2018-09-09T06:55:58.152Z,8.23
2018-09-09T06:58:39.306Z,7.35
2018-09-09T07:01:07.566Z,8.15
2018-09-09T07:03:42.295Z,7.92
2018-09-09T07:06:10.593Z,8.18
2018-09-09T07:08:40.312Z,8.53
2018-09-09T07:11:08.668Z,7.83
2018-09-09T07:13:43.562Z,7.80
2018-09-09T07:16:12.626Z,8.63
2018-09-09T07:18:41.920Z,12.78
2018-09-09T07:21:22.390Z,10.65
2018-09-09T07:24:03.697Z,10.10
2018-09-09T07:26:34.332Z,10.08
2018-09-09T07:29:03.836Z,16.70
2018-09-09T07:31:39.844Z,11.90
2018-09-09T07:34:08.404Z,8.43
2018-09-09T07:36:49.504Z,8.75
2018-09-09T07:39:18.505Z,11.73
2018-09-09T07:41:47.153Z,8.08
2018-09-09T07:44:29.006Z,13.62
2018-09-09T07:47:01.400Z,7.87
2018-09-09T07:49:35.249Z,10.30
2018-09-09T07:52:03.641Z,7.20
2018-09-09T07:54:32.186Z,8.30
2018-09-09T07:57:00.472Z,9.15
2018-09-09T07:59:28.794Z,8.35
2018-09-09T08:02:09.506Z,8.50
2018-09-09T08:04:42.133Z,8.88
2018-09-09T08:07:10.529Z,8.18
2018-09-09T08:09:39.991Z,8.15
2018-09-09T08:12:21.921Z,8.85
2018-09-09T08:15:02.670Z,8.40
2018-09-09T08:17:43.178Z,8.63
2018-09-09T08:20:11.545Z,7.60
2018-09-09T08:22:52.492Z,8.65
2018-09-09T08:25:20.832Z,6.67
2018-09-09T08:28:02.507Z,8.93
2018-09-09T08:30:43.480Z,7.42
2018-09-09T08:33:13.077Z,7.78
2018-09-09T08:35:53.924Z,7.95
2018-09-09T08:38:34.537Z,7.30
2018-09-09T08:41:04.677Z,8.30
2018-09-09T08:43:44.845Z,7.65
2018-09-09T08:46:19.210Z,7.78
2018-09-09T08:49:00.068Z,6.65
2018-09-09T08:51:40.658Z,7.15
2018-09-09T08:54:21.144Z,7.22
2018-09-09T08:57:01.708Z,7.17
2018-09-09T08:59:42.400Z,8.28
2018-09-09T09:02:23.101Z,6.80
2018-09-09T09:05:03.841Z,6.92
2018-09-09T09:07:44.516Z,6.95
2018-09-09T09:10:25.136Z,4.90
2018-09-09T09:13:05.876Z,6.12
2018-09-09T09:15:46.425Z,7.53
2018-09-09T09:18:26.988Z,5.35
2018-09-09T09:21:07.726Z,5.17
2018-09-09T09:23:36.693Z,5.37
2018-09-09T09:26:06.465Z,6.45
2018-09-09T09:28:46.618Z,5.20
2018-09-09T09:31:19.081Z,8.23
2018-09-09T09:33:47.946Z,4.80
2018-09-09T09:36:28.884Z,4.28
2018-09-09T09:39:09.495Z,6.03
2018-09-09T09:41:38.277Z,6.10
2018-09-09T09:44:07.143Z,6.62
2018-09-09T09:46:35.666Z,5.83
2018-09-09T09:49:16.389Z,5.83
2018-09-09T09:51:48.713Z,4.85
2018-09-09T09:54:18.258Z,5.55
2018-09-09T09:56:59.360Z,3.30
2018-09-09T09:59:27.603Z,3.80
2018-09-09T10:01:55.887Z,6.55
2018-09-09T10:04:36.687Z,4.45
2018-09-09T10:07:06.854Z,4.37
2018-09-09T10:09:35.191Z,4.25
2018-09-09T10:12:15.631Z,4.08
2018-09-09T10:14:43.974Z,4.15
2018-09-09T10:17:12.334Z,3.95
2018-09-09T10:19:52.848Z,3.40
2018-09-09T10:22:21.171Z,3.33
2018-09-09T10:25:01.361Z,3.40
2018-09-09T10:27:30.076Z,2.45
2018-09-09T10:30:10.739Z,3.52
2018-09-09T10:32:51.206Z,3.70
2018-09-09T10:35:19.822Z,2.25
2018-09-09T10:38:00.520Z,3.30
2018-09-09T10:40:40.983Z,2.30
2018-09-09T10:43:21.684Z,3.15
2018-09-09T10:46:02.328Z,2.65
2018-09-09T10:48:30.770Z,2.60
2018-09-09T10:50:59.159Z,3.63
2018-09-09T10:53:32.148Z,2.60
2018-09-09T10:56:13.035Z,3.85
2018-09-09T10:58:41.470Z,3.10
2018-09-09T11:01:21.796Z,4.93
2018-09-09T11:04:02.503Z,3.40
2018-09-09T11:06:31.146Z,3.85
2018-09-09T11:09:00.209Z,2.67
2018-09-09T11:11:40.596Z,2.77
2018-09-09T11:14:21.202Z,3.70
2018-09-09T11:16:53.422Z,3.02
2018-09-09T11:19:22.197Z,3.75
2018-09-09T11:22:03.370Z,6.00
2018-09-09T11:24:35.815Z,2.40
2018-09-09T11:27:09.982Z,2.83
2018-09-09T11:29:39.460Z,3.40
2018-09-09T11:32:20.535Z,2.20
2018-09-09T11:34:48.890Z,4.60
2018-09-09T11:37:29.948Z,3.40
2018-09-09T11:40:00.054Z,3.90
2018-09-09T11:42:28.565Z,2.47
2018-09-09T11:44:57.029Z,2.65
2018-09-09T11:47:37.836Z,2.70
2018-09-09T11:50:07.068Z,3.33
2018-09-09T11:52:37.089Z,3.55
2018-09-09T11:55:05.397Z,4.60
2018-09-09T11:57:46.130Z,2.70
2018-09-09T12:00:15.920Z,3.77
2018-09-09T12:02:44.341Z,4.53
2018-09-09T12:05:12.651Z,6.15
2018-09-09T12:07:40.977Z,9.88
2018-09-09T12:10:21.642Z,5.90
2018-09-09T12:13:02.481Z,4.03
2018-09-09T12:15:42.907Z,3.70
2018-09-09T12:18:23.598Z,2.40
2018-09-09T12:21:04.622Z,4.62
2018-09-09T12:23:32.968Z,3.47
2018-09-09T12:26:01.266Z,2.90
2018-09-09T12:28:42.383Z,5.43
2018-09-09T12:31:23.061Z,4.55
2018-09-09T12:34:03.554Z,4.45
2018-09-09T12:36:33.919Z,2.50
2018-09-09T12:39:02.493Z,2.52
2018-09-09T12:41:42.812Z,3.70
2018-09-09T12:44:29.054Z,5.50
2018-09-09T12:47:14.788Z,2.10
2018-09-09T12:49:54.911Z,2.40
2018-09-09T12:52:35.732Z,2.80
2018-09-09T12:55:04.124Z,2.83
2018-09-09T12:57:44.285Z,2.00
2018-09-09T13:00:12.772Z,5.30
2018-09-09T13:02:53.891Z,2.40
2018-09-09T13:05:22.579Z,3.10
2018-09-09T13:07:50.898Z,3.30
2018-09-09T13:10:19.294Z,4.20
2018-09-09T13:13:05.015Z,4.00
2018-09-09T13:15:33.493Z,1.70
2018-09-09T13:18:01.822Z,3.52
2018-09-09T13:20:30.093Z,3.30
2018-09-09T13:23:10.852Z,2.70
2018-09-09T13:25:39.253Z,2.05
2018-09-09T13:28:07.542Z,2.02
2018-09-09T13:30:48.148Z,4.67
2018-09-09T13:33:18.066Z,3.23
2018-09-09T13:35:46.400Z,2.77
2018-09-09T13:38:17.962Z,1.80
2018-09-09T13:40:46.534Z,5.92
2018-09-09T13:43:20.274Z,2.30
2018-09-09T13:45:48.703Z,7.55
2018-09-09T13:48:17.104Z,2.50
2018-09-09T13:50:45.374Z,2.25
2018-09-09T13:53:13.976Z,1.80
2018-09-09T13:55:42.511Z,3.77
2018-09-09T13:58:13.852Z,3.45
2018-09-09T14:00:45.004Z,3.27
2018-09-09T14:03:20.757Z,1.82
2018-09-09T14:05:49.266Z,3.65
2018-09-09T14:08:17.776Z,1.95
2018-09-09T14:10:51.974Z,2.90
2018-09-09T14:13:33.150Z,3.87
2018-09-09T14:16:13.698Z,3.20
2018-09-09T14:18:41.989Z,1.65
2018-09-09T14:21:23.244Z,6.67
2018-09-09T14:23:51.618Z,6.35
2018-09-09T14:26:32.409Z,1.62
2018-09-09T14:29:01.652Z,3.17
2018-09-09T14:31:42.063Z,3.27
2018-09-09T14:34:10.421Z,6.00
2018-09-09T14:36:39.773Z,3.10
2018-09-09T14:39:20.214Z,2.10
2018-09-09T14:42:00.807Z,4.78
2018-09-09T14:44:38.405Z,4.72
2018-09-09T14:47:06.753Z,5.47
2018-09-09T14:49:47.869Z,2.17
2018-09-09T14:52:16.216Z,4.22
2018-09-09T14:54:56.996Z,3.47
2018-09-09T14:57:25.392Z,3.65
2018-09-09T14:59:53.768Z,3.00
2018-09-09T15:02:34.652Z,9.28
2018-09-09T15:12:00.226Z,1.80
2018-09-09T15:14:40.583Z,4.53
2018-09-09T15:17:08.991Z,2.70
2018-09-09T15:19:37.388Z,4.70
2018-09-09T15:22:05.989Z,2.58
2018-09-09T15:24:34.661Z,4.42
2018-09-09T15:27:02.971Z,2.80
2018-09-09T15:29:44.081Z,3.70
2018-09-09T15:32:12.378Z,4.22
2018-09-09T15:34:54.593Z,3.70
2018-09-09T15:37:35.125Z,3.83
2018-09-09T15:40:15.788Z,3.37
2018-09-09T15:42:44.142Z,2.90
2018-09-09T15:45:25.218Z,3.15
2018-09-09T15:48:05.877Z,3.00
2018-09-09T15:50:47.205Z,3.10
2018-09-09T15:53:28.005Z,3.05
2018-09-09T15:56:08.575Z,3.22
2018-09-09T15:58:49.334Z,2.20
2018-09-09T16:01:17.701Z,3.05
2018-09-09T16:03:58.603Z,3.37
2018-09-09T16:06:26.886Z,3.05
2018-09-09T16:08:58.645Z,2.02
2018-09-09T16:11:28.059Z,2.90
2018-09-09T16:13:56.362Z,6.45
2018-09-09T16:16:37.179Z,4.60
2018-09-09T16:19:05.463Z,2.83
2018-09-09T16:21:33.736Z,1.95
2018-09-09T16:24:14.529Z,3.30
2018-09-09T16:26:43.027Z,2.85
2018-09-09T16:29:11.518Z,1.90
2018-09-09T16:31:39.921Z,2.85
2018-09-09T16:34:20.308Z,5.00
2018-09-09T16:36:48.746Z,2.58
2018-09-09T16:39:17.241Z,5.20
2018-09-09T16:41:45.615Z,3.92
2018-09-09T16:44:14.793Z,6.25
2018-09-09T16:46:43.132Z,5.35
2018-09-09T16:49:23.399Z,2.17
2018-09-09T16:51:52.362Z,4.05
2018-09-09T16:54:20.665Z,3.87
2018-09-09T16:56:49.156Z,2.85
2018-09-09T16:59:18.177Z,4.42
2018-09-09T17:01:46.478Z,8.80
2018-09-09T17:04:26.777Z,12.15
2018-09-09T17:06:55.098Z,2.17
2018-09-09T17:09:23.482Z,4.30
2018-09-09T17:12:04.586Z,1.95
2018-09-09T17:14:33.741Z,1.90
2018-09-09T17:17:14.030Z,3.98
2018-09-09T17:19:54.890Z,3.10
2018-09-09T17:22:25.020Z,5.12
2018-09-09T17:25:05.508Z,2.80
2018-09-09T17:27:46.150Z,5.45
2018-09-09T17:30:26.954Z,6.35
2018-09-09T17:33:08.040Z,5.35
2018-09-09T17:35:48.570Z,3.27
2018-09-09T17:38:17.037Z,5.78
2018-09-09T17:40:58.064Z,5.58
2018-09-09T17:43:27.172Z,7.70
2018-09-09T17:45:55.616Z,3.45
2018-09-09T17:48:24.943Z,7.12
2018-09-09T17:50:53.771Z,7.83
2018-09-09T17:53:35.406Z,7.08
2018-09-09T17:56:15.865Z,12.58
2018-09-09T17:58:56.700Z,7.20
2018-09-09T18:01:37.074Z,7.87
2018-09-09T18:04:17.653Z,11.60
2018-09-09T18:06:58.418Z,9.75
2018-09-09T18:09:27.484Z,10.65
2018-09-09T18:11:57.032Z,9.93
2018-09-09T18:14:37.522Z,10.25
2018-09-09T18:17:18.217Z,12.37
2018-09-09T18:19:46.565Z,18.15
2018-09-09T18:22:15.057Z,17.65
2018-09-09T18:24:43.449Z,12.93
2018-09-09T18:27:11.863Z,14.70
2018-09-09T18:29:40.304Z,22.73
2018-09-09T18:32:08.665Z,14.65
2018-09-09T18:34:37.397Z,19.90
2018-09-09T18:37:18.027Z,22.67
2018-09-09T18:39:47.054Z,26.62
2018-09-09T18:42:15.811Z,18.60
2018-09-09T18:44:44.284Z,22.00
2018-09-09T18:47:12.997Z,23.73
2018-09-09T18:49:41.335Z,14.70
2018-09-09T18:52:16.678Z,16.37
2018-09-09T18:54:45.379Z,22.77
2018-09-09T18:57:14.109Z,15.63
2018-09-09T18:59:43.302Z,12.10
2018-09-09T19:02:24.317Z,15.93
2018-09-09T19:05:04.988Z,13.93
2018-09-09T19:07:45.551Z,16.67
2018-09-09T19:10:14.740Z,13.90
2018-09-09T19:12:43.151Z,17.50
2018-09-09T19:15:23.687Z,10.15
2018-09-09T19:18:04.225Z,20.05
2018-09-09T19:20:44.859Z,16.73
2018-09-09T19:23:13.895Z,11.30
2018-09-09T19:25:54.179Z,12.43
2018-09-09T19:28:34.818Z,16.93
2018-09-09T19:31:15.384Z,13.72
2018-09-09T19:33:56.052Z,17.65
2018-09-09T19:36:24.487Z,14.80
2018-09-09T19:38:53.030Z,17.57
2018-09-09T19:41:33.502Z,18.48
2018-09-09T19:44:01.969Z,11.88
2018-09-09T19:46:30.390Z,12.63
2018-09-09T19:49:11.438Z,12.33
2018-09-09T19:51:41.009Z,22.75
2018-09-09T19:54:22.096Z,14.15
2018-09-09T19:57:02.671Z,13.18
2018-09-09T19:59:43.011Z,17.40
2018-09-09T20:02:11.352Z,15.63
2018-09-09T20:04:52.536Z,14.40
2018-09-09T20:07:32.970Z,22.22
2018-09-09T20:10:13.471Z,18.15
2018-09-09T20:12:54.159Z,15.43
2018-09-09T20:15:23.419Z,15.98
2018-09-09T20:18:04.608Z,14.70
2018-09-09T20:20:33.316Z,17.25
2018-09-09T20:23:13.764Z,20.62
2018-09-09T20:25:42.059Z,15.98
2018-09-09T20:28:23.523Z,15.78
2018-09-09T20:30:51.963Z,15.60
2018-09-09T20:33:20.257Z,14.80
2018-09-09T20:35:49.802Z,16.93
2018-09-09T20:38:18.203Z,14.25
2018-09-09T20:40:50.417Z,14.90
2018-09-09T20:43:25.356Z,19.90
2018-09-09T20:45:54.550Z,15.48
2018-09-09T20:48:22.926Z,14.20
2018-09-09T20:51:03.864Z,16.73
2018-09-09T20:53:32.204Z,23.25
2018-09-09T20:56:00.906Z,16.85
2018-09-09T20:58:30.905Z,13.10
2018-09-09T21:01:11.908Z,20.52
2018-09-09T21:03:42.295Z,15.55
2018-09-09T21:06:10.765Z,16.32
2018-09-09T21:08:39.877Z,13.30
2018-09-09T21:11:08.890Z,13.78
2018-09-09T21:13:50.077Z,15.72
2018-09-09T21:16:30.662Z,14.13
2018-09-09T21:19:11.466Z,16.67
2018-09-09T21:21:52.256Z,24.57
2018-09-09T21:24:32.842Z,18.48
2018-09-09T21:27:13.465Z,17.35
2018-09-09T21:29:54.045Z,20.12
2018-09-09T21:32:34.536Z,16.02
2018-09-09T21:35:15.114Z,15.23
2018-09-09T21:37:55.759Z,16.85
2018-09-09T21:40:24.037Z,14.50
2018-09-09T21:43:04.249Z,18.90
2018-09-09T21:45:44.849Z,17.45
2018-09-09T21:48:25.390Z,17.55
2018-09-09T21:50:53.713Z,16.62
2018-09-09T21:53:33.986Z,16.02
2018-09-09T21:56:14.459Z,14.90
2018-09-09T21:58:54.908Z,17.15
2018-09-09T22:01:41.074Z,19.32
2018-09-09T22:04:22.118Z,17.00
2018-09-09T22:07:02.835Z,20.55
2018-09-09T22:09:44.523Z,16.62
2018-09-09T22:12:25.216Z,18.62
2018-09-09T22:15:05.621Z,13.32
2018-09-09T22:17:46.375Z,13.15
2018-09-09T22:20:27.014Z,14.03
2018-09-09T22:22:55.511Z,16.45
2018-09-09T22:25:23.778Z,13.72
2018-09-09T22:27:52.680Z,13.20
2018-09-09T22:30:20.937Z,18.05
2018-09-09T22:33:01.349Z,13.53
2018-09-09T22:35:41.846Z,18.82
2018-09-09T22:38:10.177Z,18.57
2018-09-09T22:40:51.247Z,14.63
2018-09-09T22:43:32.041Z,19.87
2018-09-09T22:46:00.324Z,15.28
2018-09-09T22:48:40.574Z,17.15
2018-09-09T22:51:21.221Z,13.50
2018-09-09T22:54:01.983Z,13.72
2018-09-09T22:56:42.494Z,14.85
2018-09-09T22:59:23.107Z,12.98
2018-09-09T23:02:03.885Z,18.07
2018-09-09T23:04:32.154Z,19.20
2018-09-09T23:07:13.232Z,13.80
2018-09-09T23:09:41.520Z,21.30
2018-09-09T23:12:21.729Z,17.32
2018-09-09T23:14:50.059Z,23.00
2018-09-09T23:17:18.345Z,22.07
2018-09-09T23:19:58.640Z,15.60
2018-09-09T23:22:26.999Z,16.95
2018-09-09T23:25:08.051Z,12.70
2018-09-09T23:27:37.373Z,17.05
2018-09-09T23:30:06.231Z,17.98
2018-09-09T23:32:36.356Z,18.60
2018-09-09T23:35:17.240Z,23.70
2018-09-09T23:37:45.560Z,14.07
2018-09-09T23:40:24.000Z,23.65
2018-09-09T23:43:04.219Z,18.00
2018-09-09T23:45:44.823Z,19.35
2018-09-09T23:48:25.545Z,20.65
2018-09-09T23:50:55.361Z,23.52
2018-09-09T23:53:23.580Z,15.85
2018-09-09T23:55:58.124Z,13.62
2018-09-09T23:58:26.448Z,14.55
